sensor_id;sensor_type;location;lat;lon;timestamp;P1;durP1;ratioP1;P2;durP2;ratioP2
57191;SDS011;43052;52.588;13.396;2023-04-03T00:01:13;8.70;;;2.30;;
57191;SDS011;43052;52.588;13.396;2023-04-03T00:03:39;5.50;;;2.05;;
57191;SDS011;43052;52.588;13.396;2023-04-03T00:06:06;6.63;;;2.35;;
57191;SDS011;43052;52.588;13.396;2023-04-03T00:08:33;5.93;;;2.15;;
57191;SDS011;43052;52.588;13.396;2023-04-03T00:10:59;5.75;;;1.90;;
57191;SDS011;43052;52.588;13.396;2023-04-03T00:13:24;6.53;;;2.10;;
57191;SDS011;43052;52.588;13.396;2023-04-03T00:15:50;5.95;;;1.92;;
57191;SDS011;43052;52.588;13.396;2023-04-03T00:18:16;5.40;;;2.17;;
57191;SDS011;43052;52.588;13.396;2023-04-03T00:20:41;7.25;;;2.30;;
57191;SDS011;43052;52.588;13.396;2023-04-03T00:23:06;6.53;;;2.10;;
57191;SDS011;43052;52.588;13.396;2023-04-03T00:25:32;5.30;;;2.30;;
57191;SDS011;43052;52.588;13.396;2023-04-03T00:27:57;7.03;;;2.38;;
57191;SDS011;43052;52.588;13.396;2023-04-03T00:30:23;5.30;;;2.10;;
57191;SDS011;43052;52.588;13.396;2023-04-03T00:32:49;9.25;;;2.20;;
57191;SDS011;43052;52.588;13.396;2023-04-03T00:35:15;7.45;;;2.83;;
57191;SDS011;43052;52.588;13.396;2023-04-03T00:37:43;5.15;;;2.17;;
57191;SDS011;43052;52.588;13.396;2023-04-03T00:40:09;6.05;;;2.42;;
57191;SDS011;43052;52.588;13.396;2023-04-03T00:42:36;8.55;;;2.38;;
57191;SDS011;43052;52.588;13.396;2023-04-03T00:47:27;5.10;;;1.97;;
57191;SDS011;43052;52.588;13.396;2023-04-03T00:49:54;5.35;;;1.90;;
57191;SDS011;43052;52.588;13.396;2023-04-03T00:52:21;4.43;;;2.22;;
57191;SDS011;43052;52.588;13.396;2023-04-03T00:54:50;10.50;;;2.45;;
57191;SDS011;43052;52.588;13.396;2023-04-03T00:57:18;6.95;;;2.20;;
57191;SDS011;43052;52.588;13.396;2023-04-03T00:59:44;5.18;;;2.13;;
57191;SDS011;43052;52.588;13.396;2023-04-03T01:02:13;7.78;;;2.47;;
57191;SDS011;43052;52.588;13.396;2023-04-03T01:04:42;4.72;;;2.15;;
57191;SDS011;43052;52.588;13.396;2023-04-03T01:07:09;6.50;;;2.40;;
57191;SDS011;43052;52.588;13.396;2023-04-03T01:09:37;5.18;;;2.42;;
57191;SDS011;43052;52.588;13.396;2023-04-03T01:12:16;7.13;;;2.28;;
57191;SDS011;43052;52.588;13.396;2023-04-03T01:14:44;6.20;;;2.33;;
57191;SDS011;43052;52.588;13.396;2023-04-03T01:20:21;9.02;;;2.63;;
57191;SDS011;43052;52.588;13.396;2023-04-03T01:25:36;8.07;;;2.47;;
57191;SDS011;43052;52.588;13.396;2023-04-03T01:28:07;7.72;;;2.80;;
57191;SDS011;43052;52.588;13.396;2023-04-03T01:30:34;8.23;;;2.30;;
57191;SDS011;43052;52.588;13.396;2023-04-03T01:33:05;5.28;;;2.20;;
57191;SDS011;43052;52.588;13.396;2023-04-03T01:35:30;8.50;;;2.28;;
57191;SDS011;43052;52.588;13.396;2023-04-03T01:37:56;6.57;;;2.47;;
57191;SDS011;43052;52.588;13.396;2023-04-03T01:40:21;6.22;;;2.30;;
57191;SDS011;43052;52.588;13.396;2023-04-03T01:42:46;6.13;;;2.78;;
57191;SDS011;43052;52.588;13.396;2023-04-03T01:45:11;8.23;;;2.63;;
57191;SDS011;43052;52.588;13.396;2023-04-03T01:47:37;7.82;;;2.35;;
57191;SDS011;43052;52.588;13.396;2023-04-03T01:50:02;7.90;;;2.30;;
57191;SDS011;43052;52.588;13.396;2023-04-03T01:52:27;7.15;;;2.40;;
57191;SDS011;43052;52.588;13.396;2023-04-03T01:54:52;7.72;;;2.63;;
57191;SDS011;43052;52.588;13.396;2023-04-03T01:57:18;6.10;;;2.38;;
57191;SDS011;43052;52.588;13.396;2023-04-03T01:59:43;7.93;;;2.35;;
57191;SDS011;43052;52.588;13.396;2023-04-03T02:02:08;6.78;;;2.42;;
57191;SDS011;43052;52.588;13.396;2023-04-03T02:04:34;6.20;;;2.35;;
57191;SDS011;43052;52.588;13.396;2023-04-03T02:06:59;8.50;;;2.20;;
57191;SDS011;43052;52.588;13.396;2023-04-03T02:09:25;6.15;;;2.20;;
57191;SDS011;43052;52.588;13.396;2023-04-03T02:11:51;6.90;;;2.47;;
57191;SDS011;43052;52.588;13.396;2023-04-03T02:14:16;7.05;;;2.33;;
57191;SDS011;43052;52.588;13.396;2023-04-03T02:16:41;6.68;;;2.15;;
57191;SDS011;43052;52.588;13.396;2023-04-03T02:19:07;6.35;;;2.30;;
57191;SDS011;43052;52.588;13.396;2023-04-03T02:21:32;6.68;;;2.38;;
57191;SDS011;43052;52.588;13.396;2023-04-03T02:23:57;5.90;;;2.10;;
57191;SDS011;43052;52.588;13.396;2023-04-03T02:26:22;5.35;;;2.40;;
57191;SDS011;43052;52.588;13.396;2023-04-03T02:28:48;8.88;;;2.67;;
57191;SDS011;43052;52.588;13.396;2023-04-03T02:31:13;7.22;;;2.50;;
57191;SDS011;43052;52.588;13.396;2023-04-03T02:33:39;6.70;;;2.45;;
57191;SDS011;43052;52.588;13.396;2023-04-03T02:36:05;7.38;;;2.70;;
57191;SDS011;43052;52.588;13.396;2023-04-03T02:38:32;6.90;;;3.05;;
57191;SDS011;43052;52.588;13.396;2023-04-03T02:41:01;8.30;;;2.58;;
57191;SDS011;43052;52.588;13.396;2023-04-03T02:43:27;7.00;;;2.78;;
57191;SDS011;43052;52.588;13.396;2023-04-03T02:45:53;6.43;;;2.38;;
57191;SDS011;43052;52.588;13.396;2023-04-03T02:48:18;10.38;;;3.63;;
57191;SDS011;43052;52.588;13.396;2023-04-03T02:50:43;7.30;;;2.78;;
57191;SDS011;43052;52.588;13.396;2023-04-03T02:53:08;6.97;;;3.13;;
57191;SDS011;43052;52.588;13.396;2023-04-03T02:55:34;9.82;;;3.13;;
57191;SDS011;43052;52.588;13.396;2023-04-03T02:57:59;7.57;;;3.15;;
57191;SDS011;43052;52.588;13.396;2023-04-03T03:00:24;8.80;;;3.45;;
57191;SDS011;43052;52.588;13.396;2023-04-03T03:02:49;8.82;;;2.88;;
57191;SDS011;43052;52.588;13.396;2023-04-03T03:05:15;8.32;;;3.08;;
57191;SDS011;43052;52.588;13.396;2023-04-03T03:07:40;7.90;;;2.60;;
57191;SDS011;43052;52.588;13.396;2023-04-03T03:10:05;7.93;;;2.92;;
57191;SDS011;43052;52.588;13.396;2023-04-03T03:12:31;5.93;;;3.03;;
57191;SDS011;43052;52.588;13.396;2023-04-03T03:14:56;7.88;;;2.75;;
57191;SDS011;43052;52.588;13.396;2023-04-03T03:17:21;7.80;;;2.42;;
57191;SDS011;43052;52.588;13.396;2023-04-03T03:19:47;8.55;;;3.05;;
57191;SDS011;43052;52.588;13.396;2023-04-03T03:22:12;9.70;;;2.70;;
57191;SDS011;43052;52.588;13.396;2023-04-03T03:24:37;8.57;;;2.95;;
57191;SDS011;43052;52.588;13.396;2023-04-03T03:27:03;9.40;;;2.80;;
57191;SDS011;43052;52.588;13.396;2023-04-03T03:29:28;6.88;;;2.60;;
57191;SDS011;43052;52.588;13.396;2023-04-03T03:31:53;10.77;;;3.35;;
57191;SDS011;43052;52.588;13.396;2023-04-03T03:34:18;7.63;;;2.90;;
57191;SDS011;43052;52.588;13.396;2023-04-03T03:36:44;7.47;;;2.83;;
57191;SDS011;43052;52.588;13.396;2023-04-03T03:39:09;7.32;;;3.25;;
57191;SDS011;43052;52.588;13.396;2023-04-03T03:41:35;5.95;;;3.08;;
57191;SDS011;43052;52.588;13.396;2023-04-03T03:44:00;11.90;;;3.33;;
57191;SDS011;43052;52.588;13.396;2023-04-03T03:46:25;10.20;;;3.13;;
57191;SDS011;43052;52.588;13.396;2023-04-03T03:48:51;10.65;;;3.60;;
57191;SDS011;43052;52.588;13.396;2023-04-03T03:51:16;8.30;;;2.63;;
57191;SDS011;43052;52.588;13.396;2023-04-03T03:53:41;5.70;;;2.75;;
57191;SDS011;43052;52.588;13.396;2023-04-03T03:56:06;10.90;;;2.90;;
57191;SDS011;43052;52.588;13.396;2023-04-03T03:58:32;6.07;;;2.55;;
57191;SDS011;43052;52.588;13.396;2023-04-03T04:01:00;7.13;;;2.75;;
57191;SDS011;43052;52.588;13.396;2023-04-03T04:03:26;8.10;;;2.75;;
57191;SDS011;43052;52.588;13.396;2023-04-03T04:05:52;6.57;;;2.70;;
57191;SDS011;43052;52.588;13.396;2023-04-03T04:08:17;5.43;;;2.30;;
57191;SDS011;43052;52.588;13.396;2023-04-03T04:10:42;8.15;;;2.90;;
57191;SDS011;43052;52.588;13.396;2023-04-03T04:13:07;7.63;;;2.95;;
57191;SDS011;43052;52.588;13.396;2023-04-03T04:15:33;7.63;;;3.17;;
57191;SDS011;43052;52.588;13.396;2023-04-03T04:17:58;5.15;;;2.65;;
57191;SDS011;43052;52.588;13.396;2023-04-03T04:20:23;10.65;;;3.30;;
57191;SDS011;43052;52.588;13.396;2023-04-03T04:22:49;9.93;;;4.13;;
57191;SDS011;43052;52.588;13.396;2023-04-03T04:25:14;7.25;;;3.72;;
57191;SDS011;43052;52.588;13.396;2023-04-03T04:27:40;8.75;;;3.53;;
57191;SDS011;43052;52.588;13.396;2023-04-03T04:30:05;8.38;;;3.53;;
57191;SDS011;43052;52.588;13.396;2023-04-03T04:32:31;9.23;;;3.90;;
